createdAt,value
2018-09-15T00:00:29.892Z,20.57
2018-09-15T00:03:01.276Z,20.54
2018-09-15T00:05:32.797Z,20.57
2018-09-15T00:08:02.993Z,20.47
2018-09-15T00:10:33.407Z,20.42
2018-09-15T00:13:03.622Z,20.44
2018-09-15T00:15:33.700Z,20.41
2018-09-15T00:18:06.208Z,20.46
2018-09-15T00:20:37.571Z,20.37
2018-09-15T00:23:08.039Z,20.38
2018-09-15T00:25:38.256Z,20.42
2018-09-15T00:28:09.099Z,20.34
2018-09-15T00:30:39.278Z,20.34
2018-09-15T00:33:10.611Z,20.31
2018-09-15T00:35:41.700Z,20.27
2018-09-15T00:38:12.580Z,20.36
2018-09-15T00:40:43.625Z,20.31
2018-09-15T00:43:14.174Z,20.22
2018-09-15T00:45:44.927Z,20.33
2018-09-15T00:48:14.997Z,20.34
2018-09-15T00:50:46.064Z,20.30
2018-09-15T00:53:16.288Z,20.23
2018-09-15T00:55:46.550Z,20.24
2018-09-15T00:58:17.643Z,20.18
2018-09-15T01:00:48.041Z,20.17
2018-09-15T01:03:17.994Z,20.13
2018-09-15T01:05:48.625Z,20.20
2018-09-15T01:08:18.787Z,20.19
2018-09-15T01:10:48.982Z,20.21
2018-09-15T01:13:19.249Z,20.19
2018-09-15T01:15:49.375Z,20.22
2018-09-15T01:18:20.023Z,20.21
2018-09-15T01:20:50.083Z,20.17
2018-09-15T01:23:20.287Z,20.17
2018-09-15T01:25:50.506Z,20.20
2018-09-15T01:28:20.553Z,20.29
2018-09-15T01:30:51.701Z,20.25
2018-09-15T01:33:22.922Z,20.23
2018-09-15T01:35:53.072Z,20.20
2018-09-15T01:38:23.669Z,20.19
2018-09-15T01:40:53.801Z,20.16
2018-09-15T01:43:24.051Z,20.18
2018-09-15T01:45:54.299Z,20.17
2018-09-15T01:48:24.377Z,20.22
2018-09-15T01:50:54.473Z,20.16
2018-09-15T01:53:25.149Z,20.23
2018-09-15T01:55:55.517Z,20.22
2018-09-15T01:58:25.860Z,20.23
2018-09-15T02:00:58.374Z,20.16
2018-09-15T02:03:29.403Z,20.14
2018-09-15T02:05:59.741Z,20.20
2018-09-15T02:08:29.877Z,20.17
2018-09-15T02:11:00.183Z,20.18
2018-09-15T02:13:30.665Z,20.13
2018-09-15T02:16:00.897Z,20.14
2018-09-15T02:18:32.007Z,20.18
2018-09-15T02:21:03.999Z,20.16
2018-09-15T02:23:35.306Z,20.19
2018-09-15T02:26:05.506Z,20.15
2018-09-15T02:28:35.664Z,20.21
2018-09-15T02:31:05.719Z,20.18
2018-09-15T02:33:35.921Z,20.14
2018-09-15T02:36:07.107Z,20.07
2018-09-15T02:38:37.206Z,20.04
2018-09-15T02:41:07.684Z,20.04
2018-09-15T02:43:38.155Z,19.99
2018-09-15T02:46:08.100Z,20.11
2018-09-15T02:48:38.446Z,20.12
2018-09-15T02:51:09.489Z,20.00
2018-09-15T02:53:39.840Z,19.96
2018-09-15T02:56:09.987Z,19.97
2018-09-15T02:58:40.244Z,19.94
2018-09-15T03:01:10.539Z,19.92
2018-09-15T03:03:40.689Z,19.97
2018-09-15T03:06:11.048Z,19.98
2018-09-15T03:08:41.295Z,20.07
2018-09-15T03:11:12.394Z,20.03
2018-09-15T03:13:42.484Z,19.99
2018-09-15T03:16:12.709Z,19.97
2018-09-15T03:18:43.508Z,19.97
2018-09-15T03:21:14.578Z,20.01
2018-09-15T03:23:45.740Z,20.12
2018-09-15T03:26:15.997Z,20.16
2018-09-15T03:28:46.274Z,20.22
2018-09-15T03:31:16.638Z,20.20
2018-09-15T03:33:48.592Z,20.31
2018-09-15T03:36:18.734Z,20.29
2018-09-15T03:38:48.882Z,20.32
2018-09-15T03:41:20.731Z,20.35
2018-09-15T03:43:50.641Z,20.38
2018-09-15T03:46:21.335Z,20.36
2018-09-15T03:48:51.543Z,20.34
2018-09-15T03:51:22.062Z,20.36
2018-09-15T03:53:53.240Z,19.32
2018-09-15T03:56:23.640Z,20.32
2018-09-15T03:58:53.898Z,20.36
2018-09-15T04:01:24.012Z,20.36
2018-09-15T04:03:54.534Z,20.39
2018-09-15T04:06:25.700Z,20.38
2018-09-15T04:08:55.784Z,20.33
2018-09-15T04:11:26.372Z,20.28
2018-09-15T04:13:57.122Z,20.30
2018-09-15T04:16:27.235Z,20.29
2018-09-15T04:18:58.601Z,20.36
2018-09-15T04:21:29.762Z,20.37
2018-09-15T04:23:59.847Z,20.46
2018-09-15T04:26:29.827Z,20.50
2018-09-15T04:29:00.292Z,20.55
2018-09-15T04:31:31.716Z,20.64
2018-09-15T04:34:01.640Z,20.71
2018-09-15T04:36:31.691Z,20.84
2018-09-15T04:39:01.839Z,20.91
2018-09-15T04:41:32.058Z,21.07
2018-09-15T04:44:02.224Z,21.11
2018-09-15T04:46:33.069Z,21.31
2018-09-15T04:49:03.157Z,21.34
2018-09-15T04:51:34.608Z,21.34
2018-09-15T04:54:04.833Z,21.48
2018-09-15T04:56:35.068Z,21.43
2018-09-15T04:59:05.344Z,21.54
2018-09-15T05:01:36.581Z,21.70
2018-09-15T05:04:07.702Z,21.76
2018-09-15T05:06:38.014Z,21.90
2018-09-15T05:09:11.780Z,21.92
2018-09-15T05:11:42.762Z,22.05
2018-09-15T05:14:13.273Z,22.43
2018-09-15T05:16:43.495Z,23.35
2018-09-15T05:19:13.818Z,24.05
2018-09-15T05:21:45.051Z,24.69
2018-09-15T05:24:15.322Z,25.27
2018-09-15T05:26:45.628Z,25.88
2018-09-15T05:29:16.520Z,26.54
2018-09-15T05:31:46.804Z,26.85
2018-09-15T05:34:17.742Z,26.85
2018-09-15T05:36:51.400Z,27.36
2018-09-15T05:39:21.837Z,27.68
2018-09-15T05:41:51.911Z,28.00
2018-09-15T05:44:26.388Z,28.69
2018-09-15T05:46:56.665Z,29.24
2018-09-15T05:49:27.084Z,29.19
2018-09-15T05:51:57.027Z,28.90
2018-09-15T05:54:27.080Z,28.92
2018-09-15T05:56:57.169Z,29.57
2018-09-15T05:59:27.363Z,30.03
2018-09-15T06:01:57.760Z,29.46
2018-09-15T06:04:28.806Z,29.59
2018-09-15T06:06:59.167Z,30.55
2018-09-15T06:09:30.245Z,31.05
2018-09-15T06:12:00.984Z,29.91
2018-09-15T06:14:31.405Z,30.32
2018-09-15T06:17:01.840Z,31.29
2018-09-15T06:19:32.063Z,32.20
2018-09-15T06:22:02.134Z,31.78
2018-09-15T06:24:32.463Z,32.50
2018-09-15T06:27:03.754Z,32.81
2018-09-15T06:29:34.345Z,33.18
2018-09-15T06:32:05.429Z,34.00
2018-09-15T06:34:35.680Z,33.93
2018-09-15T06:37:05.866Z,33.46
2018-09-15T06:39:36.738Z,33.13
2018-09-15T06:42:07.747Z,32.82
2018-09-15T06:44:39.663Z,32.49
2018-09-15T06:47:10.323Z,33.34
2018-09-15T06:49:41.031Z,33.22
2018-09-15T06:52:13.065Z,33.06
2018-09-15T06:54:43.395Z,32.87
2018-09-15T06:57:13.920Z,31.20
2018-09-15T06:59:49.647Z,30.52
2018-09-15T07:02:20.292Z,29.38
2018-09-15T07:04:51.866Z,28.89
2018-09-15T07:07:22.972Z,28.55
2018-09-15T07:09:53.757Z,28.25
2018-09-15T07:12:24.476Z,28.28
2018-09-15T07:14:54.648Z,28.02
2018-09-15T07:17:26.811Z,27.70
2018-09-15T07:19:56.661Z,27.72
2018-09-15T07:22:28.099Z,27.39
2018-09-15T07:24:57.819Z,26.92
2018-09-15T07:27:28.308Z,26.72
2018-09-15T07:29:58.036Z,26.49
2018-09-15T07:32:28.791Z,26.63
2018-09-15T07:34:59.952Z,26.77
2018-09-15T07:37:31.161Z,26.86
2018-09-15T07:40:01.483Z,26.83
2018-09-15T07:42:31.671Z,26.37
2018-09-15T07:45:02.105Z,26.48
2018-09-15T07:47:32.156Z,26.59
2018-09-15T07:50:03.310Z,26.48
2018-09-15T07:52:34.571Z,26.76
2018-09-15T07:55:04.671Z,26.82
2018-09-15T07:57:36.013Z,26.82
2018-09-15T08:00:06.220Z,26.95
2018-09-15T08:02:36.406Z,26.77
2018-09-15T08:05:07.953Z,26.92
2018-09-15T08:07:38.241Z,26.93
2018-09-15T08:10:08.366Z,27.07
2018-09-15T08:12:38.846Z,27.04
2018-09-15T08:15:09.005Z,27.14
2018-09-15T08:17:39.562Z,27.04
2018-09-15T08:20:10.328Z,27.03
2018-09-15T08:22:40.159Z,26.95
2018-09-15T08:25:10.349Z,27.08
2018-09-15T08:27:40.170Z,27.17
2018-09-15T08:30:10.218Z,27.36
2018-09-15T08:32:40.938Z,27.27
2018-09-15T08:35:10.853Z,27.53
2018-09-15T08:37:40.602Z,27.56
2018-09-15T08:40:10.312Z,27.52
2018-09-15T08:42:40.063Z,27.50
2018-09-15T08:45:09.991Z,27.46
2018-09-15T08:47:41.097Z,27.39
2018-09-15T08:50:10.989Z,27.46
2018-09-15T08:52:43.428Z,27.64
2018-09-15T08:55:15.102Z,27.74
2018-09-15T08:57:45.292Z,27.65
2018-09-15T09:00:15.086Z,27.64
2018-09-15T09:02:46.743Z,27.85
2018-09-15T09:05:16.480Z,28.02
2018-09-15T09:07:46.872Z,28.22
2018-09-15T09:10:16.772Z,28.52
2018-09-15T09:12:47.971Z,28.75
2018-09-15T09:15:18.800Z,28.89
2018-09-15T09:17:49.114Z,28.95
2018-09-15T09:20:20.260Z,28.99
2018-09-15T09:22:51.404Z,29.27
2018-09-15T09:25:21.558Z,29.67
2018-09-15T09:27:51.591Z,29.74
2018-09-15T09:30:22.184Z,29.79
2018-09-15T09:32:52.764Z,30.07
2018-09-15T09:35:23.614Z,30.34
2018-09-15T09:37:53.785Z,30.71
2018-09-15T09:40:24.012Z,30.47
2018-09-15T09:42:55.781Z,30.18
2018-09-15T09:45:27.028Z,30.24
2018-09-15T09:47:59.097Z,30.47
2018-09-15T09:50:29.318Z,30.22
2018-09-15T09:52:59.778Z,30.06
2018-09-15T09:55:30.634Z,29.88
2018-09-15T09:58:05.315Z,29.81
2018-09-15T10:00:40.368Z,29.60
2018-09-15T10:03:10.855Z,29.40
2018-09-15T10:05:41.399Z,29.75
2018-09-15T10:08:13.670Z,29.91
2018-09-15T10:10:44.949Z,29.31
2018-09-15T10:13:16.509Z,29.34
2018-09-15T10:15:46.880Z,29.49
2018-09-15T10:18:18.506Z,29.60
2018-09-15T10:20:49.449Z,29.67
2018-09-15T10:23:19.530Z,29.70
2018-09-15T10:25:49.960Z,29.74
2018-09-15T10:28:21.222Z,29.82
2018-09-15T10:30:52.139Z,29.87
2018-09-15T10:33:22.574Z,29.79
2018-09-15T10:35:52.913Z,29.61
2018-09-15T10:38:23.424Z,29.60
2018-09-15T10:40:54.388Z,29.60
2018-09-15T10:43:24.655Z,29.32
2018-09-15T10:45:54.960Z,29.37
2018-09-15T10:48:28.463Z,29.08
2018-09-15T10:50:58.852Z,29.09
2018-09-15T10:53:29.598Z,28.99
2018-09-15T10:55:59.985Z,29.03
2018-09-15T10:58:30.145Z,29.04
2018-09-15T11:01:01.667Z,28.90
2018-09-15T11:03:33.008Z,28.81
2018-09-15T11:06:03.264Z,28.75
2018-09-15T11:08:34.248Z,28.83
2018-09-15T11:11:04.237Z,28.95
2018-09-15T11:13:34.384Z,28.82
2018-09-15T11:16:04.659Z,28.68
2018-09-15T11:18:35.805Z,28.74
2018-09-15T11:21:08.470Z,28.61
2018-09-15T11:23:42.378Z,28.35
2018-09-15T11:26:12.435Z,28.61
2018-09-15T11:28:42.726Z,28.63
2018-09-15T11:31:13.749Z,28.84
2018-09-15T11:33:44.012Z,28.82
2018-09-15T11:36:14.887Z,28.66
2018-09-15T11:38:46.418Z,28.68
2018-09-15T11:41:19.283Z,28.70
2018-09-15T11:43:49.700Z,28.64
2018-09-15T11:46:21.357Z,28.69
2018-09-15T11:48:51.334Z,28.76
2018-09-15T11:51:21.519Z,28.90
2018-09-15T11:53:52.972Z,28.78
2018-09-15T11:56:23.380Z,28.79
2018-09-15T11:58:53.652Z,28.97
2018-09-15T12:01:23.827Z,28.86
2018-09-15T12:03:54.764Z,28.83
2018-09-15T12:06:26.095Z,28.84
2018-09-15T12:08:57.305Z,28.81
2018-09-15T12:11:27.616Z,28.78
2018-09-15T12:13:58.424Z,28.68
2018-09-15T12:16:28.536Z,28.73
2018-09-15T12:18:58.652Z,28.88
2018-09-15T12:21:29.061Z,28.94
2018-09-15T12:23:59.302Z,28.85
2018-09-15T12:26:29.459Z,28.83
2018-09-15T12:28:59.565Z,28.57
2018-09-15T12:31:30.054Z,28.26
2018-09-15T12:34:01.948Z,28.13
2018-09-15T12:36:32.729Z,27.99
2018-09-15T12:39:04.573Z,27.92
2018-09-15T12:41:34.633Z,28.00
2018-09-15T12:44:05.147Z,28.04
2018-09-15T12:46:36.631Z,28.12
2018-09-15T12:49:07.837Z,28.07
2018-09-15T12:51:38.118Z,28.10
2018-09-15T12:54:09.475Z,28.09
2018-09-15T12:56:40.476Z,28.22
2018-09-15T12:59:11.115Z,28.13
2018-09-15T13:01:41.501Z,28.32
2018-09-15T13:04:12.729Z,28.37
2018-09-15T13:06:43.599Z,28.36
2018-09-15T13:09:14.208Z,28.42
2018-09-15T13:11:44.407Z,28.50
2018-09-15T13:14:15.851Z,28.47
2018-09-15T13:16:45.797Z,28.49
2018-09-15T13:19:16.982Z,28.44
2018-09-15T13:21:47.226Z,28.59
2018-09-15T13:24:18.266Z,28.48
2018-09-15T13:26:48.448Z,28.46
2018-09-15T13:29:18.997Z,28.40
2018-09-15T13:31:49.364Z,28.33
2018-09-15T13:34:19.647Z,28.38
2018-09-15T13:36:50.527Z,28.47
2018-09-15T13:39:20.781Z,28.46
2018-09-15T13:41:51.578Z,28.26
2018-09-15T13:44:21.901Z,28.21
2018-09-15T13:46:52.085Z,28.35
2018-09-15T13:49:22.623Z,28.41
2018-09-15T13:51:53.136Z,28.39
2018-09-15T13:54:24.161Z,28.39
2018-09-15T13:56:53.937Z,28.34
2018-09-15T13:59:24.467Z,28.30
2018-09-15T14:01:54.177Z,28.36
2018-09-15T14:04:23.870Z,28.26
2018-09-15T14:06:53.818Z,28.28
2018-09-15T14:09:23.593Z,28.32
2018-09-15T14:11:53.282Z,28.22
2018-09-15T14:14:23.151Z,28.19
2018-09-15T14:16:53.622Z,28.26
2018-09-15T14:19:23.581Z,28.40
2018-09-15T14:21:54.197Z,28.41
2018-09-15T14:24:24.033Z,28.41
2018-09-15T14:26:54.103Z,28.35
2018-09-15T14:29:23.934Z,28.37
2018-09-15T14:31:53.749Z,28.27
2018-09-15T14:34:23.491Z,28.29
2018-09-15T14:36:54.278Z,28.47
2018-09-15T14:39:24.072Z,28.44
2018-09-15T14:41:53.858Z,28.45
2018-09-15T14:44:23.937Z,28.32
2018-09-15T14:46:53.583Z,28.38
2018-09-15T14:49:23.564Z,28.30
2018-09-15T14:51:53.845Z,27.51
2018-09-15T14:54:23.557Z,28.12
2018-09-15T14:56:53.468Z,28.20
2018-09-15T14:59:23.270Z,28.07
2018-09-15T15:01:53.285Z,27.94
2018-09-15T15:04:23.083Z,27.77
2018-09-15T15:06:52.886Z,27.78
2018-09-15T15:09:22.589Z,27.85
2018-09-15T15:11:52.738Z,27.84
2018-09-15T15:14:22.416Z,27.72
2018-09-15T15:16:52.161Z,27.65
2018-09-15T15:19:25.102Z,27.52
2018-09-15T15:21:55.994Z,27.44
2018-09-15T15:37:45.203Z,26.92
2018-09-15T15:40:15.002Z,26.77
2018-09-15T15:42:44.772Z,26.72
2018-09-15T15:45:14.619Z,26.55
2018-09-15T15:47:45.478Z,26.42
2018-09-15T15:50:15.482Z,26.31
2018-09-15T15:52:45.347Z,26.39
2018-09-15T15:55:15.254Z,26.29
2018-09-15T15:57:45.073Z,26.22
2018-09-15T16:00:14.862Z,26.23
2018-09-15T16:02:44.649Z,26.14
2018-09-15T16:05:16.159Z,26.06
2018-09-15T16:10:18.730Z,25.82
2018-09-15T16:12:48.548Z,25.82
2018-09-15T16:15:18.318Z,25.80
2018-09-15T16:17:48.006Z,25.74
2018-09-15T16:20:18.773Z,25.67
2018-09-15T16:22:49.948Z,25.52
2018-09-15T16:25:20.661Z,25.56
2018-09-15T16:27:50.768Z,25.48
2018-09-15T16:30:20.727Z,25.48
2018-09-15T16:32:50.525Z,25.53
2018-09-15T16:35:22.826Z,25.46
2018-09-15T16:37:52.852Z,25.45
2018-09-15T16:40:22.679Z,25.48
2018-09-15T16:42:52.525Z,25.51
2018-09-15T16:45:22.638Z,25.54
2018-09-15T16:47:55.713Z,25.38
2018-09-15T16:50:25.683Z,25.34
2018-09-15T16:52:56.054Z,25.28
2018-09-15T16:55:25.937Z,25.27
2018-09-15T16:57:56.369Z,25.25
2018-09-15T17:00:26.977Z,25.11
2018-09-15T17:02:56.971Z,25.02
2018-09-15T17:05:26.696Z,24.94
2018-09-15T17:07:56.467Z,24.84
2018-09-15T17:10:26.353Z,24.73
2018-09-15T17:12:56.587Z,24.64
2018-09-15T17:15:26.362Z,24.59
2018-09-15T17:17:56.171Z,24.59
2018-09-15T17:20:26.506Z,24.54
2018-09-15T17:22:59.332Z,24.64
2018-09-15T17:25:29.542Z,24.62
2018-09-15T17:27:59.465Z,24.60
2018-09-15T17:30:30.932Z,24.70
2018-09-15T17:33:01.992Z,24.61
2018-09-15T17:35:32.798Z,24.67
2018-09-15T17:38:02.692Z,24.71
2018-09-15T17:40:33.360Z,24.72
2018-09-15T17:43:03.244Z,24.74
2018-09-15T17:45:34.550Z,24.75
2018-09-15T17:48:04.841Z,24.68
2018-09-15T17:50:35.232Z,24.67
2018-09-15T17:53:05.943Z,24.73
2018-09-15T17:55:35.768Z,24.67
2018-09-15T17:58:05.563Z,24.59
2018-09-15T18:00:35.345Z,24.61
2018-09-15T18:03:05.668Z,24.64
2018-09-15T18:05:35.732Z,24.59
2018-09-15T18:08:05.543Z,24.60
2018-09-15T18:10:35.477Z,24.47
2018-09-15T18:13:05.164Z,24.46
2018-09-15T18:15:35.176Z,24.47
2018-09-15T18:18:05.001Z,24.48
2018-09-15T18:20:36.671Z,24.48
2018-09-15T18:23:07.514Z,24.53
2018-09-15T18:25:38.645Z,24.50
2018-09-15T18:28:08.420Z,24.41
2018-09-15T18:30:38.123Z,24.35
2018-09-15T18:33:07.825Z,24.38
2018-09-15T18:35:39.118Z,24.37
2018-09-15T18:38:08.785Z,24.46
2018-09-15T18:40:38.553Z,24.38
2018-09-15T18:43:10.956Z,24.37
2018-09-15T18:45:41.614Z,24.43
2018-09-15T18:48:12.844Z,24.28
2018-09-15T18:50:44.109Z,24.23
2018-09-15T18:53:15.328Z,24.25
2018-09-15T18:55:48.570Z,24.27
2018-09-15T18:58:19.488Z,24.17
2018-09-15T19:00:49.829Z,24.21
2018-09-15T19:03:20.066Z,24.14
2018-09-15T19:05:50.711Z,24.18
2018-09-15T19:08:21.190Z,24.02
2018-09-15T19:10:51.371Z,23.93
2018-09-15T19:13:21.446Z,23.76
2018-09-15T19:15:52.139Z,23.67
2018-09-15T19:18:22.428Z,23.59
2018-09-15T19:20:55.031Z,23.53
2018-09-15T19:23:26.248Z,23.37
2018-09-15T19:25:57.374Z,23.29
2018-09-15T19:28:27.378Z,23.30
2018-09-15T19:30:59.723Z,23.34
2018-09-15T19:33:30.185Z,23.36
2018-09-15T19:36:02.531Z,23.35
2018-09-15T19:38:34.923Z,23.39
2018-09-15T19:41:05.571Z,23.44
2018-09-15T19:43:36.052Z,23.41
2018-09-15T19:46:06.084Z,23.48
2018-09-15T19:48:36.370Z,23.50
2018-09-15T19:51:08.254Z,23.54
2018-09-15T19:53:39.084Z,23.59
2018-09-15T19:56:09.118Z,23.59
2018-09-15T19:58:39.600Z,23.63
2018-09-15T20:01:10.612Z,23.66
2018-09-15T20:03:40.791Z,23.66
2018-09-15T20:06:11.555Z,23.73
2018-09-15T20:08:41.720Z,23.73
2018-09-15T20:11:11.898Z,23.70
2018-09-15T20:13:42.043Z,23.60
2018-09-15T20:16:10.316Z,23.54
2018-09-15T20:18:38.859Z,23.56
2018-09-15T20:21:08.243Z,23.55
2018-09-15T20:23:38.480Z,23.50
2018-09-15T20:26:10.077Z,23.46
2018-09-15T20:28:40.075Z,23.47
2018-09-15T20:31:10.485Z,23.57
2018-09-15T20:33:41.851Z,23.61
2018-09-15T20:36:12.182Z,23.68
2018-09-15T20:38:43.285Z,23.75
2018-09-15T20:41:14.003Z,23.69
2018-09-15T20:43:44.299Z,23.75
2018-09-15T20:46:15.314Z,23.78
2018-09-15T20:48:45.208Z,23.74
2018-09-15T20:51:16.832Z,23.90
2018-09-15T20:53:47.339Z,23.93
2018-09-15T20:56:19.204Z,23.97
2018-09-15T20:58:50.771Z,24.05
2018-09-15T21:01:21.193Z,24.07
2018-09-15T21:03:51.842Z,24.11
2018-09-15T21:06:22.796Z,24.04
2018-09-15T21:08:53.257Z,24.04
2018-09-15T21:11:23.344Z,24.02
2018-09-15T21:13:53.533Z,23.95
2018-09-15T21:16:23.963Z,23.95
2018-09-15T21:18:54.099Z,23.95
2018-09-15T21:21:24.457Z,24.00
2018-09-15T21:23:56.742Z,24.01
2018-09-15T21:26:27.701Z,24.02
2018-09-15T21:28:58.099Z,23.99
2018-09-15T21:31:28.573Z,24.06
2018-09-15T21:33:58.994Z,24.10
2018-09-15T21:36:29.007Z,24.09
2018-09-15T21:38:59.511Z,24.09
2018-09-15T21:41:30.785Z,24.10
2018-09-15T21:44:01.604Z,24.08
2018-09-15T21:46:32.036Z,24.04
2018-09-15T21:49:02.548Z,24.00
2018-09-15T21:51:32.668Z,23.91
2018-09-15T21:54:03.390Z,23.98
2018-09-15T21:56:34.279Z,23.95
2018-09-15T21:59:04.483Z,23.89
2018-09-15T22:01:34.830Z,23.76
2018-09-15T22:04:09.879Z,23.65
2018-09-15T22:06:40.354Z,23.56
2018-09-15T22:09:12.098Z,23.46
2018-09-15T22:11:42.633Z,23.31
2018-09-15T22:14:13.808Z,23.24
2018-09-15T22:16:44.415Z,23.18
2018-09-15T22:19:14.559Z,23.10
2018-09-15T22:21:44.832Z,23.05
2018-09-15T22:24:15.397Z,23.07
2018-09-15T22:26:45.731Z,23.09
2018-09-15T22:29:16.977Z,23.10
2018-09-15T22:31:47.112Z,23.04
2018-09-15T22:34:17.508Z,23.05
2018-09-15T22:36:47.581Z,23.00
2018-09-15T22:39:17.702Z,22.89
2018-09-15T22:41:48.036Z,22.88
2018-09-15T22:44:18.097Z,22.79
2018-09-15T22:46:48.438Z,22.83
2018-09-15T22:49:19.121Z,22.81
2018-09-15T22:51:49.141Z,22.81
2018-09-15T22:54:19.576Z,22.77
2018-09-15T22:56:49.874Z,22.75
2018-09-15T22:59:20.020Z,22.60
2018-09-15T23:01:50.024Z,22.63
2018-09-15T23:04:20.096Z,22.58
2018-09-15T23:06:50.467Z,22.58
2018-09-15T23:09:20.525Z,22.65
2018-09-15T23:11:52.000Z,22.61
2018-09-15T23:14:22.154Z,22.66
2018-09-15T23:16:52.472Z,22.69
2018-09-15T23:19:22.544Z,22.72
2018-09-15T23:21:52.545Z,22.81
2018-09-15T23:24:23.811Z,22.89
2018-09-15T23:26:53.982Z,22.90
2018-09-15T23:29:25.875Z,22.88
2018-09-15T23:31:56.572Z,22.94
2018-09-15T23:34:26.823Z,22.96
2018-09-15T23:36:56.898Z,22.86
2018-09-15T23:39:27.022Z,22.91
2018-09-15T23:41:58.511Z,22.91
2018-09-15T23:44:29.860Z,22.85
2018-09-15T23:47:00.166Z,22.97
2018-09-15T23:49:30.461Z,22.92
2018-09-15T23:52:00.482Z,22.92
2018-09-15T23:54:30.705Z,22.90
2018-09-15T23:57:02.088Z,22.96
2018-09-15T23:59:34.089Z,22.91
